Flight Track Log - Related Links

Times and Time Zones

All times are in EDT time to prevent confusion due to time zone crossing. See the AAL963 flight status page for this flight to view local times or setup timezone preferences in your user account.

Time Position Orientation Groundspeed Altitude Reporting Facility
EDT Latitude Longitude Course Direction KTS MPH feet Rate Location/Type
Sat 09:07:47 PM 32.9350 -97.0290 11° North 176 203 1,900  Level FlightAware ADS-B
Sat 09:08:02 PM 32.9470 -97.0250 16° North 186 214 2,200 1,067 Climbing FlightAware ADS-B
Sat 09:08:32 PM 32.9730 -97.0150 18° North 209 241 2,700 1,091 Climbing FlightAware ADS-B
Sat 09:08:57 PM 32.9960 -97.0070 16° North 222 255 3,200 1,500 Climbing FlightAware ADS-B
Sat 09:09:12 PM 33.0110 -96.9970 29° Northeast 222 255 3,700 1,800 Climbing FlightAware ADS-B
Sat 09:09:27 PM 33.0190 -96.9810 59° Northeast 234 269 4,100 1,000 Climbing FlightAware ADS-B
Sat 09:09:42 PM 33.0220 -96.9640 78° East 255 293 4,200 1,200 Climbing FlightAware ADS-B
Sat 09:10:07 PM 33.0170 -96.9260 99° East 272 313 4,900 1,855 Climbing FlightAware ADS-B
Sat 09:10:37 PM 33.0060 -96.8820 107° East 279 321 5,900 1,745 Climbing FlightAware ADS-B
Sat 09:11:02 PM 32.9900 -96.8450 117° Southeast 294 338 6,500 1,636 Climbing FlightAware ADS-B
Sat 09:11:32 PM 32.9710 -96.8020 118° Southeast 298 343 7,400 1,800 Climbing FlightAware ADS-B
Sat 09:12:02 PM 32.9510 -96.7580 118° Southeast 305 351 8,300 1,855 Climbing FlightAware ADS-B
Sat 09:12:27 PM 32.9340 -96.7220 119° Southeast 311 358 9,100 1,745 Climbing FlightAware ADS-B
Sat 09:12:57 PM 32.9140 -96.6750 117° Southeast 317 365 9,900 1,543 Climbing FlightAware ADS-B
Sat 09:13:37 PM 32.8870 -96.6130 117° Southeast 337 388 10,900 1,200 Climbing FlightAware ADS-B
Sat 09:14:17 PM 32.8550 -96.5430 119° Southeast 373 429 11,500 1,412 Climbing FlightAware ADS-B
Sat 09:15:02 PM 32.8170 -96.4580 118° Southeast 393 452 12,900 1,976 Climbing FlightAware ADS-B
Sat 09:15:42 PM 32.7830 -96.3800 117° Southeast 404 465 14,300 1,976 Climbing FlightAware ADS-B
Sat 09:16:27 PM 32.7540 -96.2870 110° East 422 486 15,700 1,765 Climbing FlightAware ADS-B
Sat 09:17:07 PM 32.7390 -96.1940 101° East 437 503 16,800 1,725 Climbing FlightAware ADS-B
Sat 09:17:47 PM 32.7240 -96.0970 100° East 450 518 18,000 1,765 Climbing FlightAware ADS-B
Sat 09:18:32 PM 32.7070 -95.9850 100° East 463 533 19,300 1,792 Climbing FlightAware ADS-B
Sat 09:19:04 PM 32.6932 -95.9002 101° East 473 544 20,300 1,742 Climbing FlightAware ADS-B
Sat 09:19:34 PM 32.6807 -95.8223 101° East 481 554 21,100 1,704 Climbing FlightAware ADS-B
Sat 09:20:25 PM 32.6609 -95.6899 100° East 491 565 22,600 1,759 Climbing FlightAware ADS-B
Sat 09:20:32 PM 32.6595 -95.6687 94° East 493 567 22,800 1,636 Climbing FlightAware ADS-B
Sat 09:20:47 PM 32.6588 -95.6285 91° East 497 572 23,200 1,500 Climbing FlightAware ADS-B
Sat 09:20:56 PM 32.6597 -95.6053 87° East 499 574 23,400 764 Climbing FlightAware ADS-B
Sat 09:21:42 PM 32.6680 -95.4920 85° East 501 577 23,900 1,481 Climbing FlightAware ADS-B
Sat 09:22:13 PM 32.6745 -95.3918 86° East 514 592 25,300 1,913 Climbing FlightAware ADS-B
Sat 09:22:51 PM 32.6817 -95.2846 85° East 518 596 26,100 1,324 Climbing FlightAware ADS-B
Sat 09:23:21 PM 32.6852 -95.2011 87° East 522 601 26,800 1,294 Climbing FlightAware ADS-B
Sat 09:23:42 PM 32.6786 -95.1400 97° East 520 598 27,200 1,182 Climbing FlightAware ADS-B
Sat 09:24:27 PM 32.6420 -95.0340 112° Southeast 506 582 28,100 1,424 Climbing FlightAware ADS-B
Sat 09:24:41 PM 32.6187 -94.9909 123° Southeast 504 580 28,600 1,333 Climbing FlightAware ADS-B
Sat 09:25:21 PM 32.5677 -94.8985 123° Southeast 508 585 29,300 930 Climbing FlightAware ADS-B
Sat 09:25:52 PM 32.5279 -94.8273 124° Southeast 513 590 29,700 885 Climbing FlightAware ADS-B
Sat 09:26:22 PM 32.4877 -94.7552 123° Southeast 518 596 30,200 857 Climbing FlightAware ADS-B
Sat 09:26:55 PM 32.4447 -94.6781 123° Southeast 524 603 30,600 676 Climbing FlightAware ADS-B
Sat 09:27:33 PM 32.3939 -94.5871 123° Southeast 531 611 31,000 1,085 Climbing FlightAware ADS-B
Sat 09:28:29 PM 32.3177 -94.4505 123° Southeast 526 605 32,300 1,333 Climbing FlightAware ADS-B
Sat 09:29:03 PM 32.2726 -94.3699 123° Southeast 523 602 33,000 627 Climbing FlightAware ADS-B
Sat 09:29:36 PM 32.2293 -94.2932 124° Southeast 519 597 33,000  Level FlightAware ADS-B
Sat 09:30:06 PM 32.1891 -94.2218 124° Southeast 521 600 33,000  Level FlightAware ADS-B
Sat 09:30:37 PM 32.1473 -94.1478 124° Southeast 522 601 33,000  Level FlightAware ADS-B
Sat 09:31:07 PM 32.1067 -94.0763 124° Southeast 524 603 33,000  Level FlightAware ADS-B
Sat 09:31:35 PM 32.0688 -94.0094 124° Southeast 526 605 33,000  Level FlightAware ADS-B
Sat 09:32:06 PM 32.0274 -93.9365 124° Southeast 528 608 33,000 492 Level FlightAware ADS-B
Sat 09:32:36 PM 31.9865 -93.8646 124° Southeast 529 609 33,500 1,000 Climbing FlightAware ADS-B
Sat 09:33:06 PM 31.9458 -93.7931 124° Southeast 527 606 34,000 900 Climbing FlightAware ADS-B
Sat 09:33:36 PM 31.9048 -93.7212 124° Southeast 526 605 34,400 885 Climbing FlightAware ADS-B
Sat 09:34:07 PM 31.8637 -93.6494 124° Southeast 522 601 34,900 590 Climbing FlightAware ADS-B
Sat 09:34:37 PM 31.8228 -93.5782 124° Southeast 522 601 35,000 97 Climbing FlightAware ADS-B
Sat 09:35:09 PM 31.7796 -93.5032 124° Southeast 522 601 35,000  Level FlightAware ADS-B
Sat 09:35:41 PM 31.7368 -93.4288 124° Southeast 522 601 35,000  Level FlightAware ADS-B
Sat 09:36:11 PM 31.6959 -93.3579 124° Southeast 520 598 35,000  Level FlightAware ADS-B
Sat 09:36:43 PM 31.6536 -93.2846 124° Southeast 517 595 35,000  Level FlightAware ADS-B
Sat 09:37:15 PM 31.6099 -93.2091 124° Southeast 517 595 35,000  Level FlightAware ADS-B
Sat 09:38:01 PM 31.5487 -93.1037 124° Southeast 516 594 35,000  Level FlightAware ADS-B
Sat 09:38:31 PM 31.5080 -93.0338 124° Southeast 515 593 35,000  Level FlightAware ADS-B
Sat 09:39:01 PM 31.4674 -92.9635 124° Southeast 516 594 35,000  Level FlightAware ADS-B
Sat 09:39:43 PM 31.4124 -92.8679 124° Southeast 516 594 35,000  Level FlightAware ADS-B
Sat 09:40:13 PM 31.3717 -92.7974 124° Southeast 518 596 35,000  Level FlightAware ADS-B
Sat 09:40:43 PM 31.3315 -92.7277 124° Southeast 519 597 35,000  Level FlightAware ADS-B
Sat 09:41:15 PM 31.2883 -92.6533 124° Southeast 521 600 35,000  Level FlightAware ADS-B
Sat 09:41:46 PM 31.2467 -92.5818 124° Southeast 524 603 35,000  Level FlightAware ADS-B
Sat 09:42:20 PM 31.1999 -92.5013 124° Southeast 526 605 35,000  Level FlightAware ADS-B
Sat 09:43:19 PM 31.1196 -92.3638 124° Southeast 526 605 35,000  Level FlightAware ADS-B
Sat 09:43:55 PM 31.0700 -92.2793 124° Southeast 535 616 35,000  Level FlightAware ADS-B
Sat 09:44:25 PM 31.0268 -92.2059 124° Southeast 536 617 35,000  Level FlightAware ADS-B
Sat 09:48:31 PM 30.6517 -91.6669 129° Southeast 518 596 35,000  Level FlightAware ADS-B
Sat 09:49:43 PM 30.5143 -91.5459 143° Southeast 524 603 35,000  Level FlightAware ADS-B
Sat 09:50:13 PM 30.4563 -91.4931 142° Southeast 525 604 35,000  Level FlightAware ADS-B
Sat 09:50:45 PM 30.3959 -91.4377 142° Southeast 524 603 35,000  Level FlightAware ADS-B
Sat 09:51:15 PM 30.3377 -91.3875 143° Southeast 522 601 35,000  Level FlightAware ADS-B
Sat 09:51:48 PM 30.2724 -91.3347 145° Southeast 520 598 35,000  Level FlightAware ADS-B
Sat 09:53:25 PM 30.0811 -91.1784 145° Southeast 518 596 35,000  Level FlightAware ADS-B
Sat 09:53:56 PM 30.0219 -91.1297 145° Southeast 516 594 35,000  Level FlightAware ADS-B
Sat 09:55:57 PM 29.7902 -90.9391 144° Southeast 501 577 35,000 -39 Level FlightAware ADS-B
Sat 09:56:28 PM 29.7500 -90.9081 144° Southeast 501 577 34,900 -65 Descending Houston Center
Sat 09:57:29 PM 29.6381 -90.8158 144° Southeast 498 573 34,900 49 Level Houston Center
Sat 09:58:30 PM 29.5253 -90.7250 145° Southeast 497 572 35,000 49 Climbing Houston Center
Sat 09:59:31 PM 29.4150 -90.6350 145° Southeast 490 564 35,000 -50 Level Houston Center
Sat 10:00:31 PM 29.3036 -90.5461 145° Southeast 489 563 34,900 -50 Descending Houston Center
Sat 10:01:32 PM 29.1686 -90.4369 145° Southeast 493 567 34,900  Level Houston Center
Sat 10:02:33 PM 29.0550 -90.3461 145° Southeast 498 573 34,900  Level Houston Center
Sat 10:03:34 PM 28.9422 -90.2564 145° Southeast 497 572 34,900 50 Level Houston Center
Sat 10:04:34 PM 28.8314 -90.1669 145° Southeast 492 566 35,000 50 Climbing Houston Center
Sat 10:05:35 PM 28.7167 -90.0767 145° Southeast 498 573 35,000  Level Houston Center
Sat 10:06:36 PM 28.6017 -89.9842 145° Southeast 505 581 35,000  Level Houston Center
Sat 10:07:36 PM 28.4742 -89.9242 158° South 497 572 35,000  Level Houston Center
Sat 10:08:37 PM 28.3494 -89.8569 155° Southeast 498 573 35,000  Level Houston Center
Sat 10:09:38 PM 28.2233 -89.7878 154° Southeast 501 577 35,000  Level Houston Center
Sat 10:10:39 PM 28.0967 -89.7222 155° Southeast 500 575 35,000  Level Houston Center
Sat 10:11:39 PM 27.9686 -89.6628 158° South 499 574 35,000 -50 Level Houston Center
Sat 10:12:40 PM 27.8408 -89.5972 156° South 499 574 34,900  Descending Houston Center
Sat 10:13:40 PM 27.7128 -89.5319 156° South 503 579 35,000  Climbing Houston Center
Sat 10:14:41 PM 27.5847 -89.4708 157° South 502 578 34,900 -49 Descending Houston Center
Sat 10:15:42 PM 27.4561 -89.4108 158° South 501 577 34,900 50 Level Houston Center
Sat 10:16:42 PM 27.3281 -89.3514 158° South 500 575 35,000  Climbing Houston Center
Sat 10:17:43 PM 27.2003 -89.2892 157° South 499 574 34,900  Descending Houston Center
Sat 10:18:44 PM 27.0450 -89.2133 156° South 503 579 35,000  Climbing Houston Center
Sat 10:19:44 PM 26.9408 -89.1714 160° South 503 579 34,900 -50 Descending Houston Center
Sat 10:20:45 PM 26.7844 -89.1097 161° South 500 575 34,900  Level Houston Center
Sat 10:21:46 PM 26.6522 -89.0567 160° South 502 578 34,900 17 Level Houston Center
Sat 10:23:00 PM 26.4980 -88.9925 160° South  Level FlightAware Approximate
Sat 10:30:00 PM 25.6189 -88.6403 160° South  Level FlightAware Approximate
Sat 10:31:00 PM 25.4933 -88.5904 160° South  Level FlightAware Approximate
Sat 10:32:00 PM 25.3676 -88.5407 160° South  Level FlightAware Approximate
Sat 10:33:00 PM 25.2419 -88.4910 160° South  Level FlightAware Approximate
Sat 10:34:00 PM 25.1162 -88.4414 160° South  Level FlightAware Approximate
Sat 10:35:00 PM 24.9905 -88.3920 160° South  Level FlightAware Approximate
Sat 10:36:00 PM 24.8648 -88.3426 160° South  Level FlightAware Approximate
Sat 10:37:00 PM 24.7390 -88.2934 160° South  Level FlightAware Approximate
Sat 10:38:00 PM 24.6133 -88.2442 160° South  Level FlightAware Approximate
Sat 10:39:00 PM 24.4875 -88.1951 160° South  Level FlightAware Approximate
Sat 10:40:00 PM 24.3619 -88.1456 160° South  Level FlightAware Approximate
Sat 10:41:00 PM 24.2362 -88.0963 160° South  Level FlightAware Approximate
Sat 10:42:00 PM 24.1105 -88.0470 160° South  Level FlightAware Approximate
Sat 10:43:00 PM 23.9848 -87.9978 160° South  Level FlightAware Approximate
Sat 10:44:00 PM 23.8591 -87.9488 160° South  Level FlightAware Approximate
Sat 10:45:00 PM 23.7334 -87.8998 160° South  Level FlightAware Approximate
Sat 10:46:00 PM 23.6077 -87.8509 160° South  Level FlightAware Approximate
Sat 10:47:00 PM 23.4819 -87.8021 160° South  Level FlightAware Approximate
Sat 10:48:00 PM 23.3562 -87.7534 160° South  Level FlightAware Approximate
Sat 10:49:00 PM 23.2304 -87.7048 160° South  Level FlightAware Approximate
Sat 10:50:00 PM 23.1046 -87.6563 160° South  Level FlightAware Approximate
Sat 10:51:00 PM 22.9788 -87.6079 160° South  Level FlightAware Approximate
Sat 10:52:00 PM 22.8530 -87.5595 161° South  Level FlightAware Approximate
Sat 10:53:00 PM 22.7271 -87.5113 161° South  Level FlightAware Approximate
Sat 10:54:00 PM 22.6013 -87.4632 161° South  Level FlightAware Approximate
Sat 10:55:00 PM 22.4754 -87.4151 161° South  Level FlightAware Approximate
Sat 10:56:00 PM 22.3495 -87.3671 161° South  Level FlightAware Approximate
Sat 10:57:00 PM 22.2236 -87.3192 161° South  Level FlightAware Approximate
Sat 10:58:00 PM 22.0977 -87.2714 161° South  Level FlightAware Approximate
Sat 10:59:00 PM 21.9718 -87.2237 161° South  Level FlightAware Approximate
Sat 11:00:00 PM 21.8459 -87.1761 161° South  Level FlightAware Approximate
Sat 11:01:00 PM 21.7199 -87.1285 161° South  Level FlightAware Approximate
Sat 11:02:00 PM 21.5940 -87.0809 160° South  Level FlightAware Approximate
Sat 11:03:00 PM 21.4690 -87.0307 160° South  Level FlightAware Approximate
Sat 11:04:00 PM 21.3439 -86.9807 160° South  Level FlightAware Approximate
Sat 11:05:00 PM 21.2188 -86.9306 160° South  Level FlightAware Approximate
Sat 11:06:00 PM 21.0938 -86.8807 160° South  Level FlightAware Approximate
Sat 11:07:00 PM 20.9797 -86.8121 136° Southeast  Level FlightAware Approximate
Sat 11:08:00 PM 20.8833 -86.7132 136° Southeast  Level FlightAware Approximate
Sat 11:09:00 PM 20.7868 -86.6146 136° Southeast  Level FlightAware Approximate
Sat 11:10:00 PM 20.6903 -86.5160 136° Southeast  Level FlightAware Approximate
Sat 11:11:00 PM 20.5917 -86.4155 136° Southeast  Level FlightAware Approximate
Sat 11:12:00 PM 20.4930 -86.3151 136° Southeast  Level FlightAware Approximate
Sat 11:13:00 PM 20.3942 -86.2148 136° Southeast  Level FlightAware Approximate
Sat 11:14:00 PM 20.2954 -86.1147 136° Southeast  Level FlightAware Approximate
Sat 11:15:00 PM 20.1965 -86.0147 136° Southeast  Level FlightAware Approximate
Sat 11:16:00 PM 20.0976 -85.9148 137° Southeast  Level FlightAware Approximate
Sat 11:17:00 PM 19.9987 -85.8149 136° Southeast  Level FlightAware Approximate
Sat 11:18:00 PM 19.9000 -85.7150 136° Southeast  Level FlightAware Approximate
Sat 11:19:00 PM 19.8012 -85.6151 136° Southeast  Level FlightAware Approximate
Sat 11:20:00 PM 19.7023 -85.5154 136° Southeast  Level FlightAware Approximate
Sat 11:21:00 PM 19.6034 -85.4158 137° Southeast  Level FlightAware Approximate
Sat 11:22:00 PM 19.5045 -85.3164 137° Southeast  Level FlightAware Approximate
Sat 11:23:00 PM 19.4055 -85.2170 137° Southeast  Level FlightAware Approximate
Sat 11:24:00 PM 19.3062 -85.1176 137° Southeast  Level FlightAware Approximate
Sat 11:25:00 PM 19.2069 -85.0183 137° Southeast  Level FlightAware Approximate
Sat 11:26:00 PM 19.1076 -84.9192 137° Southeast  Level FlightAware Approximate
Sat 11:27:00 PM 19.0082 -84.8201 137° Southeast  Level FlightAware Approximate
Sat 11:28:00 PM 18.9087 -84.7212 137° Southeast  Level FlightAware Approximate
Sat 11:29:00 PM 18.8092 -84.6224 137° Southeast  Level FlightAware Approximate
Sat 11:30:00 PM 18.7096 -84.5237 137° Southeast  Level FlightAware Approximate
Sat 11:31:00 PM 18.6100 -84.4251 137° Southeast  Level FlightAware Approximate
Sat 11:32:00 PM 18.5103 -84.3266 137° Southeast  Level FlightAware Approximate
Sat 11:33:00 PM 18.4106 -84.2283 137° Southeast  Level FlightAware Approximate
Sat 11:34:00 PM 18.3108 -84.1301 137° Southeast  Level FlightAware Approximate
Sat 11:35:00 PM 18.2110 -84.0320 137° Southeast  Level FlightAware Approximate
Sat 11:36:00 PM 18.1111 -83.9340 137° Southeast  Level FlightAware Approximate
Sat 11:37:00 PM 18.0112 -83.8361 137° Southeast  Level FlightAware Approximate
Sat 11:38:00 PM 17.9112 -83.7383 137° Southeast  Level FlightAware Approximate
Sat 11:39:00 PM 17.8112 -83.6406 137° Southeast  Level FlightAware Approximate
Sat 11:40:00 PM 17.7111 -83.5431 137° Southeast  Level FlightAware Approximate
Sat 11:41:00 PM 17.6110 -83.4456 137° Southeast  Level FlightAware Approximate
Sat 11:42:00 PM 17.5109 -83.3483 137° Southeast  Level FlightAware Approximate
Sat 11:43:00 PM 17.4107 -83.2510 137° Southeast  Level FlightAware Approximate
Sat 11:44:00 PM 17.3104 -83.1539 137° Southeast  Level FlightAware Approximate
Sat 11:45:00 PM 17.2101 -83.0569 137° Southeast  Level FlightAware Approximate
Sat 11:46:00 PM 17.1097 -82.9600 137° Southeast  Level FlightAware Approximate
Sat 11:47:00 PM 17.0093 -82.8632 137° Southeast  Level FlightAware Approximate
Sat 11:48:00 PM 16.9089 -82.7664 137° Southeast  Level FlightAware Approximate
Sat 11:49:00 PM 16.8084 -82.6698 137° Southeast  Level FlightAware Approximate
Sat 11:50:00 PM 16.7078 -82.5733 137° Southeast  Level FlightAware Approximate
Sat 11:51:00 PM 16.6073 -82.4769 137° Southeast  Level FlightAware Approximate
Sat 11:52:00 PM 16.5066 -82.3806 137° Southeast  Level FlightAware Approximate
Sat 11:53:00 PM 16.4060 -82.2844 137° Southeast  Level FlightAware Approximate
Sat 11:54:00 PM 16.3053 -82.1883 138° Southeast  Level FlightAware Approximate
Sat 11:55:00 PM 16.2041 -82.0928 138° Southeast  Level FlightAware Approximate
Sat 11:56:00 PM 16.1029 -81.9974 138° Southeast  Level FlightAware Approximate
Sat 11:57:00 PM 16.0016 -81.9021 138° Southeast  Level FlightAware Approximate
Sat 11:58:00 PM 15.9006 -81.8072 138° Southeast  Level FlightAware Approximate
Sat 11:59:00 PM 15.7996 -81.7124 138° Southeast  Level FlightAware Approximate
Sun 12:00:00 AM 15.6986 -81.6178 138° Southeast  Level FlightAware Approximate
Sun 12:01:00 AM 15.5975 -81.5232 138° Southeast  Level FlightAware Approximate
Sun 12:02:00 AM 15.4964 -81.4287 138° Southeast  Level FlightAware Approximate
Sun 12:03:00 AM 15.3952 -81.3343 138° Southeast  Level FlightAware Approximate
Sun 12:04:00 AM 15.2940 -81.2400 138° Southeast  Level FlightAware Approximate
Sun 12:05:00 AM 15.1928 -81.1458 138° Southeast  Level FlightAware Approximate
Sun 12:06:00 AM 15.0915 -81.0516 138° Southeast  Level FlightAware Approximate
Sun 12:07:00 AM 14.9903 -80.9576 138° Southeast  Level FlightAware Approximate
Sun 12:08:00 AM 14.8893 -80.8631 138° Southeast  Level FlightAware Approximate
Sun 12:09:00 AM 14.7884 -80.7688 138° Southeast  Level FlightAware Approximate
Sun 12:10:00 AM 14.6874 -80.6745 138° Southeast  Level FlightAware Approximate
Sun 12:11:00 AM 14.5864 -80.5803 138° Southeast  Level FlightAware Approximate
Sun 12:12:00 AM 14.4853 -80.4862 138° Southeast  Level FlightAware Approximate
Sun 12:13:00 AM 14.3842 -80.3922 138° Southeast  Level FlightAware Approximate
Sun 12:14:00 AM 14.2830 -80.2983 138° Southeast  Level FlightAware Approximate
Sun 12:15:00 AM 14.1818 -80.2045 138° Southeast  Level FlightAware Approximate
Sun 12:16:00 AM 14.0806 -80.1107 138° Southeast  Level FlightAware Approximate
Sun 12:17:00 AM 13.9793 -80.0170 138° Southeast  Level FlightAware Approximate
Sun 12:18:00 AM 13.8780 -79.9234 138° Southeast  Level FlightAware Approximate
Sun 12:19:00 AM 13.7767 -79.8299 138° Southeast  Level FlightAware Approximate
Sun 12:20:00 AM 13.6753 -79.7365 138° Southeast  Level FlightAware Approximate
Sun 12:21:00 AM 13.5739 -79.6432 138° Southeast  Level FlightAware Approximate
Sun 12:22:00 AM 13.4725 -79.5499 138° Southeast  Level FlightAware Approximate
Sun 12:23:00 AM 13.3710 -79.4567 138° Southeast  Level FlightAware Approximate
Sun 12:24:00 AM 13.2695 -79.3636 138° Southeast  Level FlightAware Approximate
Sun 12:25:00 AM 13.1680 -79.2706 138° Southeast  Level FlightAware Approximate
Sun 12:26:00 AM 13.0664 -79.1776 138° Southeast  Level FlightAware Approximate
Sun 12:27:00 AM 12.9648 -79.0847 138° Southeast  Level FlightAware Approximate
Sun 12:27:57 AM 11.4600 -77.8050 138° Southeast 490 564 37,000  Level FlightAware ADS-B
Sun 12:28:00 AM 12.8632 -78.9920 138° Southeast  Level FlightAware Approximate
Sun 12:28:42 AM 11.3830 -77.7450 143° Southeast 489 563 37,000  Level FlightAware ADS-B
Sun 12:29:17 AM 11.3240 -77.6980 142° Southeast 489 563 37,000  Level FlightAware ADS-B
Sun 12:30:07 AM 11.2480 -77.6370 142° Southeast 489 563 37,000  Level FlightAware ADS-B
Sun 12:30:47 AM 11.1870 -77.5890 142° Southeast 489 563 37,000  Level FlightAware ADS-B
Sun 12:31:32 AM 11.0670 -77.5000 144° Southeast 488 562 37,000  Level FlightAware ADS-B
Sun 12:32:12 AM 10.9950 -77.4450 143° Southeast 488 562 37,000  Level FlightAware ADS-B
Sun 12:32:52 AM 10.9310 -77.3900 140° Southeast 494 568 37,000  Level FlightAware ADS-B
Sun 12:33:37 AM 10.8480 -77.3140 138° Southeast 488 562 37,000  Level FlightAware ADS-B
Sun 12:34:17 AM 10.7800 -77.2500 137° Southeast 486 559 37,000  Level FlightAware ADS-B
Sun 12:34:57 AM 10.7140 -77.1880 137° Southeast 485 558 37,000  Level FlightAware ADS-B
Sun 12:35:37 AM 10.6550 -77.1310 136° Southeast 485 558 37,000  Level FlightAware ADS-B
Sun 12:36:22 AM 10.5690 -77.0530 138° Southeast 485 558 37,000  Level FlightAware ADS-B
Sun 12:37:02 AM 10.5070 -76.9950 137° Southeast 485 558 37,000  Level FlightAware ADS-B
Sun 12:38:02 AM 10.4040 -76.9000 138° Southeast 483 556 37,000  Level FlightAware ADS-B
Sun 12:38:47 AM 10.3350 -76.8340 137° Southeast 483 556 37,000  Level FlightAware ADS-B
Sun 12:39:27 AM 10.2620 -76.7680 138° Southeast 482 555 37,000  Level FlightAware ADS-B
Sun 12:40:07 AM 10.1970 -76.7080 138° Southeast 481 554 37,000  Level FlightAware ADS-B
Sun 12:41:07 AM 10.1010 -76.6190 138° Southeast 481 554 37,000  Level FlightAware ADS-B
Sun 12:41:47 AM 10.0310 -76.5530 137° Southeast 480 552 37,000  Level FlightAware ADS-B
Sun 12:42:27 AM 9.9660 -76.4940 138° Southeast 479 551 37,000  Level FlightAware ADS-B
Sun 12:43:12 AM 9.8920 -76.4250 137° Southeast 482 555 37,000  Level FlightAware ADS-B
Sun 12:43:52 AM 9.8330 -76.3700 137° Southeast 482 555 37,000  Level FlightAware ADS-B
Sun 12:44:32 AM 9.7610 -76.3040 138° Southeast 482 555 37,000  Level FlightAware ADS-B
Sun 12:45:17 AM 9.6850 -76.2340 138° Southeast 482 555 37,000  Level FlightAware ADS-B
Sun 12:45:52 AM 9.6270 -76.1800 137° Southeast 482 555 37,000  Level FlightAware ADS-B
Sun 12:46:32 AM 9.5690 -76.1270 138° Southeast 481 554 37,000  Level FlightAware ADS-B
Sun 12:47:17 AM 9.5040 -76.0650 137° Southeast 481 554 37,000  Level FlightAware ADS-B
Sun 12:47:57 AM 9.4490 -76.0130 137° Southeast 481 554 37,000  Level FlightAware ADS-B
Sun 12:48:47 AM 9.3800 -75.9480 137° Southeast 481 554 37,000  Level FlightAware ADS-B
Sun 12:49:27 AM 9.3240 -75.8950 137° Southeast 481 554 37,000  Level FlightAware ADS-B
Sun 12:50:07 AM 9.2690 -75.8430 137° Southeast 481 554 37,000  Level FlightAware ADS-B
Sun 12:50:47 AM 9.2140 -75.7910 137° Southeast 481 554 37,000  Level FlightAware ADS-B
Sun 12:51:37 AM 9.1450 -75.7260 137° Southeast 481 554 37,000  Level FlightAware ADS-B
Sun 12:52:17 AM 9.0890 -75.6730 137° Southeast 481 554 37,000  Level FlightAware ADS-B
Sun 12:52:57 AM 9.0340 -75.6210 137° Southeast 481 554 37,000  Level FlightAware ADS-B
Sun 12:53:37 AM 8.9790 -75.5690 137° Southeast 481 554 37,000  Level FlightAware ADS-B
Sun 12:54:17 AM 8.9230 -75.5170 137° Southeast 481 554 37,000  Level FlightAware ADS-B
Sun 12:55:07 AM 8.8540 -75.4510 137° Southeast 481 554 37,000  Level FlightAware ADS-B
Sun 12:55:47 AM 8.7990 -75.3990 137° Southeast 481 554 37,000  Level FlightAware ADS-B
Sun 12:56:27 AM 8.7430 -75.3470 137° Southeast 481 554 37,000 15 Level FlightAware ADS-B
Sun 12:59:00 AM 8.4848 -75.1145 138° Southeast  Level FlightAware Approximate
Sun 01:00:00 AM 8.3835 -75.0234 138° Southeast  Level FlightAware Approximate
Sun 01:01:00 AM 8.2823 -74.9323 138° Southeast  Level FlightAware Approximate
Sun 01:02:00 AM 8.1809 -74.8413 138° Southeast  Level FlightAware Approximate
Sun 01:03:00 AM 8.0796 -74.7504 138° Southeast  Level FlightAware Approximate
Sun 01:04:00 AM 7.9782 -74.6594 138° Southeast  Level FlightAware Approximate
Sun 01:05:00 AM 7.8769 -74.5686 138° Southeast  Level FlightAware Approximate
Sun 01:06:00 AM 7.7755 -74.4777 138° Southeast  Level FlightAware Approximate
Sun 01:07:00 AM 7.6740 -74.3869 138° Southeast  Level FlightAware Approximate
Sun 01:08:00 AM 7.5726 -74.2962 138° Southeast  Level FlightAware Approximate
Sun 01:09:00 AM 7.4711 -74.2055 138° Southeast  Level FlightAware Approximate
Sun 01:10:00 AM 7.3696 -74.1149 138° Southeast  Level FlightAware Approximate
Sun 01:11:00 AM 7.2681 -74.0243 138° Southeast  Level FlightAware Approximate
Sun 01:12:00 AM 7.1666 -73.9337 138° Southeast  Level FlightAware Approximate
Sun 01:13:00 AM 7.0651 -73.8432 138° Southeast  Level FlightAware Approximate
Sun 01:14:00 AM 6.9540 -73.7659 152° Southeast  Level FlightAware Approximate
Sun 01:15:00 AM 6.8347 -73.7011 152° Southeast  Level FlightAware Approximate
Sun 01:16:00 AM 6.7156 -73.6363 152° Southeast  Level FlightAware Approximate
Sun 01:17:00 AM 6.5965 -73.5717 152° Southeast  Level FlightAware Approximate
Sun 01:18:00 AM 6.4774 -73.5070 152° Southeast  Level FlightAware Approximate
Sun 01:19:00 AM 6.3583 -73.4424 152° Southeast  Level FlightAware Approximate
Sun 01:20:00 AM 6.2392 -73.3778 152° Southeast  Level FlightAware Approximate
Sun 01:21:00 AM 6.1200 -73.3132 152° Southeast  Level FlightAware Approximate
Sun 01:22:00 AM 6.0009 -73.2487 152° Southeast  Level FlightAware Approximate
Sun 01:23:00 AM 5.8818 -73.1842 152° Southeast  Level FlightAware Approximate
Sun 01:24:00 AM 5.7626 -73.1197 152° Southeast  Level FlightAware Approximate
Sun 01:25:00 AM 5.6434 -73.0553 152° Southeast  Level FlightAware Approximate
Sun 01:26:00 AM 5.5243 -72.9908 152° Southeast  Level FlightAware Approximate
Sun 01:27:00 AM 5.4051 -72.9264 152° Southeast  Level FlightAware Approximate
Sun 01:28:00 AM 5.2859 -72.8621 152° Southeast  Level FlightAware Approximate
Sun 01:29:00 AM 5.1667 -72.7977 152° Southeast  Level FlightAware Approximate
Sun 01:30:00 AM 5.0475 -72.7334 152° Southeast  Level FlightAware Approximate
Sun 01:31:00 AM 4.9283 -72.6691 152° Southeast  Level FlightAware Approximate
Sun 01:32:00 AM 4.8091 -72.6048 152° Southeast  Level FlightAware Approximate
Sun 01:33:00 AM 4.6899 -72.5405 152° Southeast  Level FlightAware Approximate
Sun 01:34:00 AM 4.5707 -72.4763 152° Southeast  Level FlightAware Approximate
Sun 01:35:00 AM 4.4514 -72.4121 152° Southeast  Level FlightAware Approximate
Sun 01:36:00 AM 4.3322 -72.3479 152° Southeast  Level FlightAware Approximate
Sun 01:37:00 AM 4.2130 -72.2837 152° Southeast  Level FlightAware Approximate
Sun 01:38:00 AM 4.0937 -72.2196 152° Southeast  Level FlightAware Approximate
Sun 01:39:00 AM 3.9745 -72.1554 152° Southeast  Level FlightAware Approximate
Sun 01:40:00 AM 3.8608 -72.0822 145° Southeast  Level FlightAware Approximate
Sun 01:41:00 AM 3.7502 -72.0041 145° Southeast  Level FlightAware Approximate
Sun 01:42:00 AM 3.6395 -71.9260 145° Southeast  Level FlightAware Approximate
Sun 01:43:00 AM 3.5288 -71.8480 145° Southeast  Level FlightAware Approximate
Sun 01:44:00 AM 3.4182 -71.7700 145° Southeast  Level FlightAware Approximate
Sun 01:45:00 AM 3.3075 -71.6919 145° Southeast  Level FlightAware Approximate
Sun 01:46:00 AM 3.1968 -71.6140 145° Southeast  Level FlightAware Approximate
Sun 01:47:00 AM 3.0861 -71.5360 145° Southeast  Level FlightAware Approximate
Sun 01:48:00 AM 2.9754 -71.4580 145° Southeast  Level FlightAware Approximate
Sun 01:49:00 AM 2.8647 -71.3801 145° Southeast  Level FlightAware Approximate
Sun 01:50:00 AM 2.7540 -71.3022 145° Southeast  Level FlightAware Approximate
Sun 01:51:00 AM 2.6433 -71.2243 145° Southeast  Level FlightAware Approximate
Sun 01:52:00 AM 2.5326 -71.1464 145° Southeast  Level FlightAware Approximate
Sun 01:53:00 AM 2.4219 -71.0685 145° Southeast  Level FlightAware Approximate
Sun 01:54:00 AM 2.3111 -70.9906 145° Southeast  Level FlightAware Approximate
Sun 01:55:00 AM 2.2004 -70.9128 145° Southeast  Level FlightAware Approximate
Sun 01:56:00 AM 2.0897 -70.8349 145° Southeast  Level FlightAware Approximate
Sun 01:57:00 AM 1.9789 -70.7571 145° Southeast  Level FlightAware Approximate
Sun 01:58:00 AM 1.8682 -70.6793 145° Southeast  Level FlightAware Approximate
Sun 01:59:00 AM 1.7574 -70.6015 145° Southeast  Level FlightAware Approximate
Sun 02:00:00 AM 1.6467 -70.5237 145° Southeast  Level FlightAware Approximate
Sun 02:01:00 AM 1.5359 -70.4458 145° Southeast  Level FlightAware Approximate
Sun 02:02:00 AM 1.4252 -70.3681 145° Southeast  Level FlightAware Approximate
Sun 02:03:00 AM 1.3144 -70.2903 145° Southeast  Level FlightAware Approximate
Sun 02:04:00 AM 1.2063 -70.2092 138° Southeast  Level FlightAware Approximate
Sun 02:05:00 AM 1.1052 -70.1192 138° Southeast  Level FlightAware Approximate
Sun 02:06:00 AM 1.0041 -70.0293 138° Southeast  Level FlightAware Approximate
Sun 02:07:00 AM 0.9030 -69.9393 138° Southeast  Level FlightAware Approximate
Sun 02:08:00 AM 0.8019 -69.8493 138° Southeast  Level FlightAware Approximate
Sun 02:09:00 AM 0.7008 -69.7594 138° Southeast  Level FlightAware Approximate
Sun 02:10:00 AM 0.5997 -69.6694 138° Southeast  Level FlightAware Approximate
Sun 02:11:00 AM 0.4986 -69.5794 138° Southeast  Level FlightAware Approximate
Sun 02:12:00 AM 0.3975 -69.4895 138° Southeast  Level FlightAware Approximate
Sun 02:13:00 AM 0.2964 -69.3995 138° Southeast  Level FlightAware Approximate
Sun 02:14:00 AM 0.1953 -69.3096 138° Southeast  Level FlightAware Approximate
Sun 02:15:00 AM 0.0942 -69.2196 138° Southeast  Level FlightAware Approximate
Sun 02:16:00 AM -0.0069 -69.1297 138° Southeast  Level FlightAware Approximate
Sun 02:17:00 AM -0.1080 -69.0397 138° Southeast  Level FlightAware Approximate
Sun 02:18:00 AM -0.2091 -68.9498 138° Southeast  Level FlightAware Approximate
Sun 02:19:00 AM -0.3102 -68.8598 138° Southeast  Level FlightAware Approximate
Sun 02:20:00 AM -0.4113 -68.7699 138° Southeast  Level FlightAware Approximate
Sun 02:21:00 AM -0.5124 -68.6799 138° Southeast  Level FlightAware Approximate
Sun 02:22:00 AM -0.6135 -68.5900 138° Southeast  Level FlightAware Approximate
Sun 02:23:00 AM -0.7146 -68.5000 138° Southeast  Level FlightAware Approximate
Sun 02:24:00 AM -0.8157 -68.4100 138° Southeast  Level FlightAware Approximate
Sun 02:25:00 AM -0.9168 -68.3201 138° Southeast  Level FlightAware Approximate
Sun 02:26:00 AM -1.0179 -68.2301 138° Southeast  Level FlightAware Approximate
Sun 02:27:00 AM -1.1190 -68.1401 138° Southeast  Level FlightAware Approximate
Sun 02:28:00 AM -1.2201 -68.0501 138° Southeast  Level FlightAware Approximate
Sun 02:29:00 AM -1.3211 -67.9601 138° Southeast  Level FlightAware Approximate
Sun 02:30:00 AM -1.4222 -67.8701 138° Southeast  Level FlightAware Approximate
Sun 02:31:00 AM -1.5233 -67.7801 138° Southeast  Level FlightAware Approximate
Sun 02:32:00 AM -1.6244 -67.6901 138° Southeast  Level FlightAware Approximate
Sun 02:33:00 AM -1.7255 -67.6000 138° Southeast  Level FlightAware Approximate
Sun 02:34:00 AM -1.8265 -67.5100 138° Southeast  Level FlightAware Approximate
Sun 02:35:00 AM -1.9276 -67.4200 138° Southeast  Level FlightAware Approximate
Sun 02:36:00 AM -2.0286 -67.3299 138° Southeast  Level FlightAware Approximate
Sun 02:37:00 AM -2.1297 -67.2398 138° Southeast  Level FlightAware Approximate
Sun 02:38:00 AM -2.2307 -67.1497 138° Southeast  Level FlightAware Approximate
Sun 02:39:00 AM -2.3318 -67.0596 138° Southeast  Level FlightAware Approximate
Sun 02:40:00 AM -2.4328 -66.9695 138° Southeast  Level FlightAware Approximate
Sun 02:41:00 AM -2.5338 -66.8794 138° Southeast  Level FlightAware Approximate
Sun 02:42:00 AM -2.6349 -66.7893 138° Southeast  Level FlightAware Approximate
Sun 02:43:00 AM -2.7359 -66.6991 138° Southeast  Level FlightAware Approximate
Sun 02:44:00 AM -2.8369 -66.6090 138° Southeast  Level FlightAware Approximate
Sun 02:45:00 AM -2.9379 -66.5188 138° Southeast  Level FlightAware Approximate
Sun 02:46:00 AM -3.0389 -66.4286 138° Southeast  Level FlightAware Approximate
Sun 02:47:00 AM -3.1399 -66.3384 138° Southeast  Level FlightAware Approximate
Sun 02:48:00 AM -3.2409 -66.2482 138° Southeast  Level FlightAware Approximate
Sun 02:49:00 AM -3.3418 -66.1579 138° Southeast  Level FlightAware Approximate
Sun 02:50:00 AM -3.4428 -66.0676 138° Southeast  Level FlightAware Approximate
Sun 02:51:00 AM -3.5438 -65.9773 138° Southeast  Level FlightAware Approximate
Sun 02:52:00 AM -3.6447 -65.8870 138° Southeast  Level FlightAware Approximate
Sun 02:53:00 AM -3.7457 -65.7967 138° Southeast  Level FlightAware Approximate
Sun 02:54:00 AM -3.8466 -65.7064 138° Southeast  Level FlightAware Approximate
Sun 02:55:00 AM -3.9475 -65.6160 138° Southeast  Level FlightAware Approximate
Sun 02:56:00 AM -4.0482 -65.5258 138° Southeast  Level FlightAware Approximate
Sun 02:57:00 AM -4.1490 -65.4355 138° Southeast  Level FlightAware Approximate
Sun 02:58:00 AM -4.2497 -65.3452 138° Southeast  Level FlightAware Approximate
Sun 02:59:00 AM -4.3504 -65.2549 138° Southeast  Level FlightAware Approximate
Sun 03:00:00 AM -4.4510 -65.1646 138° Southeast  Level FlightAware Approximate
Sun 03:01:00 AM -4.5517 -65.0743 138° Southeast  Level FlightAware Approximate
Sun 03:02:00 AM -4.6524 -64.9839 138° Southeast  Level FlightAware Approximate
Sun 03:03:00 AM -4.7530 -64.8935 138° Southeast  Level FlightAware Approximate
Sun 03:04:00 AM -4.8537 -64.8031 138° Southeast  Level FlightAware Approximate
Sun 03:05:00 AM -4.9543 -64.7126 138° Southeast  Level FlightAware Approximate
Sun 03:06:00 AM -5.0549 -64.6221 138° Southeast  Level FlightAware Approximate
Sun 03:07:00 AM -5.1555 -64.5316 138° Southeast  Level FlightAware Approximate
Sun 03:08:00 AM -5.2561 -64.4411 138° Southeast  Level FlightAware Approximate
Sun 03:09:00 AM -5.3567 -64.3505 138° Southeast  Level FlightAware Approximate
Sun 03:10:00 AM -5.4573 -64.2599 138° Southeast  Level FlightAware Approximate
Sun 03:11:00 AM -5.5578 -64.1693 138° Southeast  Level FlightAware Approximate
Sun 03:12:00 AM -5.6584 -64.0787 138° Southeast  Level FlightAware Approximate
Sun 03:13:00 AM -5.7589 -63.9880 138° Southeast  Level FlightAware Approximate
Sun 03:14:00 AM -5.8594 -63.8972 138° Southeast  Level FlightAware Approximate
Sun 03:15:00 AM -5.9599 -63.8065 138° Southeast  Level FlightAware Approximate
Sun 03:16:00 AM -6.0604 -63.7157 138° Southeast  Level FlightAware Approximate
Sun 03:17:00 AM -6.1608 -63.6249 138° Southeast  Level FlightAware Approximate
Sun 03:18:00 AM -6.2613 -63.5340 138° Southeast  Level FlightAware Approximate
Sun 03:19:00 AM -6.3617 -63.4431 138° Southeast  Level FlightAware Approximate
Sun 03:20:00 AM -6.4621 -63.3522 138° Southeast  Level FlightAware Approximate
Sun 03:21:00 AM -6.5625 -63.2613 138° Southeast  Level FlightAware Approximate
Sun 03:22:00 AM -6.6629 -63.1703 138° Southeast  Level FlightAware Approximate
Sun 03:23:00 AM -6.7633 -63.0792 138° Southeast  Level FlightAware Approximate
Sun 03:24:00 AM -6.8636 -62.9882 138° Southeast  Level FlightAware Approximate
Sun 03:25:00 AM -6.9640 -62.8970 138° Southeast  Level FlightAware Approximate
Sun 03:26:00 AM -7.0643 -62.8059 138° Southeast  Level FlightAware Approximate
Sun 03:27:00 AM -7.1646 -62.7147 138° Southeast  Level FlightAware Approximate
Sun 03:28:00 AM -7.2649 -62.6235 138° Southeast  Level FlightAware Approximate
Sun 03:29:00 AM -7.3651 -62.5322 138° Southeast  Level FlightAware Approximate
Sun 03:30:00 AM -7.4654 -62.4409 138° Southeast  Level FlightAware Approximate
Sun 03:31:00 AM -7.5656 -62.3495 138° Southeast  Level FlightAware Approximate
Sun 03:32:00 AM -7.6658 -62.2581 138° Southeast  Level FlightAware Approximate
Sun 03:33:00 AM -7.7660 -62.1667 138° Southeast  Level FlightAware Approximate
Sun 03:34:00 AM -7.8662 -62.0752 138° Southeast  Level FlightAware Approximate
Sun 03:35:00 AM -7.9663 -61.9837 138° Southeast  Level FlightAware Approximate
Sun 03:36:00 AM -8.0664 -61.8921 138° Southeast  Level FlightAware Approximate
Sun 03:37:00 AM -8.1665 -61.8005 138° Southeast  Level FlightAware Approximate
Sun 03:38:00 AM -8.2666 -61.7089 138° Southeast  Level FlightAware Approximate
Sun 03:39:00 AM -8.3667 -61.6171 138° Southeast  Level FlightAware Approximate
Sun 03:40:00 AM -8.4668 -61.5254 138° Southeast  Level FlightAware Approximate
Sun 03:41:00 AM -8.5668 -61.4336 138° Southeast  Level FlightAware Approximate
Sun 03:42:00 AM -8.6668 -61.3417 138° Southeast  Level FlightAware Approximate
Sun 03:43:00 AM -8.7668 -61.2498 138° Southeast  Level FlightAware Approximate
Sun 03:44:00 AM -8.8667 -61.1579 138° Southeast  Level FlightAware Approximate
Sun 03:45:00 AM -8.9667 -61.0659 138° Southeast  Level FlightAware Approximate
Sun 03:46:00 AM -9.0666 -60.9738 138° Southeast  Level FlightAware Approximate
Sun 03:47:00 AM -9.1665 -60.8817 138° Southeast  Level FlightAware Approximate
Sun 03:48:00 AM -9.2663 -60.7896 138° Southeast  Level FlightAware Approximate
Sun 03:49:00 AM -9.3662 -60.6974 138° Southeast  Level FlightAware Approximate
Sun 03:50:00 AM -9.4660 -60.6051 138° Southeast  Level FlightAware Approximate
Sun 03:51:00 AM -9.5658 -60.5128 138° Southeast  Level FlightAware Approximate
Sun 03:52:00 AM -9.6656 -60.4204 138° Southeast  Level FlightAware Approximate
Sun 03:53:00 AM -9.7653 -60.3280 138° Southeast  Level FlightAware Approximate
Sun 03:54:00 AM -9.8650 -60.2355 138° Southeast  Level FlightAware Approximate
Sun 03:55:00 AM -9.9647 -60.1430 138° Southeast  Level FlightAware Approximate
Sun 03:56:00 AM -10.0644 -60.0504 138° Southeast  Level FlightAware Approximate
Sun 03:57:00 AM -10.1640 -59.9578 138° Southeast  Level FlightAware Approximate
Sun 03:58:00 AM -10.2637 -59.8651 138° Southeast  Level FlightAware Approximate
Sun 03:59:00 AM -10.3632 -59.7723 138° Southeast  Level FlightAware Approximate
Sun 04:00:00 AM -10.4628 -59.6795 137° Southeast  Level FlightAware Approximate
Sun 04:01:00 AM -10.5624 -59.5866 137° Southeast  Level FlightAware Approximate
Sun 04:02:00 AM -10.6619 -59.4936 137° Southeast  Level FlightAware Approximate
Sun 04:03:00 AM -10.7613 -59.4007 137° Southeast  Level FlightAware Approximate
Sun 04:04:00 AM -10.8608 -59.3076 137° Southeast  Level FlightAware Approximate
Sun 04:05:00 AM -10.9602 -59.2145 137° Southeast  Level FlightAware Approximate
Sun 04:06:00 AM -11.0596 -59.1213 137° Southeast  Level FlightAware Approximate
Sun 04:07:00 AM -11.1590 -59.0280 137° Southeast  Level FlightAware Approximate
Sun 04:08:00 AM -11.2584 -58.9347 137° Southeast  Level FlightAware Approximate
Sun 04:09:00 AM -11.3577 -58.8413 137° Southeast  Level FlightAware Approximate
Sun 04:10:00 AM -11.4569 -58.7479 137° Southeast  Level FlightAware Approximate
Sun 04:11:00 AM -11.5562 -58.6544 137° Southeast  Level FlightAware Approximate
Sun 04:12:00 AM -11.6554 -58.5608 137° Southeast  Level FlightAware Approximate
Sun 04:13:00 AM -11.7546 -58.4671 137° Southeast  Level FlightAware Approximate
Sun 04:14:00 AM -11.8538 -58.3734 137° Southeast  Level FlightAware Approximate
Sun 04:15:00 AM -11.9529 -58.2797 137° Southeast  Level FlightAware Approximate
Sun 04:16:00 AM -12.0520 -58.1858 137° Southeast  Level FlightAware Approximate
Sun 04:17:00 AM -12.1511 -58.0919 137° Southeast  Level FlightAware Approximate
Sun 04:18:00 AM -12.2501 -57.9979 137° Southeast  Level FlightAware Approximate
Sun 04:19:00 AM -12.3491 -57.9038 137° Southeast  Level FlightAware Approximate
Sun 04:20:00 AM -12.4481 -57.8097 137° Southeast  Level FlightAware Approximate
Sun 04:21:00 AM -12.5470 -57.7155 137° Southeast  Level FlightAware Approximate
Sun 04:22:00 AM -12.6459 -57.6212 137° Southeast  Level FlightAware Approximate
Sun 04:23:00 AM -12.7448 -57.5269 137° Southeast  Level FlightAware Approximate
Sun 04:24:00 AM -12.8436 -57.4325 137° Southeast  Level FlightAware Approximate
Sun 04:25:00 AM -12.9425 -57.3380 137° Southeast  Level FlightAware Approximate
Sun 04:26:00 AM -13.0412 -57.2434 137° Southeast  Level FlightAware Approximate
Sun 04:27:00 AM -13.1400 -57.1487 137° Southeast  Level FlightAware Approximate
Sun 04:28:00 AM -13.2387 -57.0540 137° Southeast  Level FlightAware Approximate
Sun 04:29:00 AM -13.3373 -56.9592 137° Southeast  Level FlightAware Approximate
Sun 04:30:00 AM -13.4360 -56.8643 137° Southeast  Level FlightAware Approximate
Sun 04:31:00 AM -13.5346 -56.7694 137° Southeast  Level FlightAware Approximate
Sun 04:32:00 AM -13.6332 -56.6744 137° Southeast  Level FlightAware Approximate
Sun 04:33:00 AM -13.7317 -56.5793 137° Southeast  Level FlightAware Approximate
Sun 04:34:00 AM -13.8302 -56.4841 137° Southeast  Level FlightAware Approximate
Sun 04:35:00 AM -13.9286 -56.3888 137° Southeast  Level FlightAware Approximate
Sun 04:36:00 AM -14.0270 -56.2934 137° Southeast  Level FlightAware Approximate
Sun 04:37:00 AM -14.1254 -56.1980 137° Southeast  Level FlightAware Approximate
Sun 04:38:00 AM -14.2238 -56.1025 137° Southeast  Level FlightAware Approximate
Sun 04:39:00 AM -14.3221 -56.0069 137° Southeast  Level FlightAware Approximate
Sun 04:40:00 AM -14.4203 -55.9112 137° Southeast  Level FlightAware Approximate
Sun 04:41:00 AM -14.5186 -55.8154 137° Southeast  Level FlightAware Approximate
Sun 04:42:00 AM -14.6167 -55.7196 137° Southeast  Level FlightAware Approximate
Sun 04:43:00 AM -14.7149 -55.6236 137° Southeast  Level FlightAware Approximate
Sun 04:44:00 AM -14.8130 -55.5276 137° Southeast  Level FlightAware Approximate
Sun 04:45:00 AM -14.9111 -55.4315 137° Southeast  Level FlightAware Approximate
Sun 04:46:00 AM -15.0091 -55.3353 137° Southeast  Level FlightAware Approximate
Sun 04:47:00 AM -15.1071 -55.2390 137° Southeast  Level FlightAware Approximate
Sun 04:48:00 AM -15.2051 -55.1426 136° Southeast  Level FlightAware Approximate
Sun 04:49:00 AM -15.3030 -55.0462 136° Southeast  Level FlightAware Approximate
Sun 04:50:00 AM -15.4008 -54.9496 136° Southeast  Level FlightAware Approximate
Sun 04:51:00 AM -15.4987 -54.8530 136° Southeast  Level FlightAware Approximate
Sun 04:52:00 AM -15.5964 -54.7562 136° Southeast  Level FlightAware Approximate
Sun 04:53:00 AM -15.6942 -54.6594 136° Southeast  Level FlightAware Approximate
Sun 04:54:00 AM -15.7919 -54.5625 136° Southeast  Level FlightAware Approximate
Sun 04:55:00 AM -15.8895 -54.4654 136° Southeast  Level FlightAware Approximate
Sun 04:56:00 AM -15.9872 -54.3683 136° Southeast  Level FlightAware Approximate
Sun 04:57:00 AM -16.0847 -54.2711 136° Southeast  Level FlightAware Approximate
Sun 04:58:00 AM -16.1822 -54.1738 136° Southeast  Level FlightAware Approximate
Sun 04:59:00 AM -16.2797 -54.0764 136° Southeast  Level FlightAware Approximate
Sun 05:00:00 AM -16.3772 -53.9789 136° Southeast  Level FlightAware Approximate
Sun 05:01:00 AM -16.4746 -53.8813 136° Southeast  Level FlightAware Approximate
Sun 05:02:00 AM -16.5719 -53.7836 136° Southeast  Level FlightAware Approximate
Sun 05:03:00 AM -16.6692 -53.6858 136° Southeast  Level FlightAware Approximate
Sun 05:04:00 AM -16.7665 -53.5880 136° Southeast  Level FlightAware Approximate
Sun 05:05:00 AM -16.8637 -53.4900 136° Southeast  Level FlightAware Approximate
Sun 05:06:00 AM -16.9608 -53.3919 136° Southeast  Level FlightAware Approximate
Sun 05:07:00 AM -17.0579 -53.2937 136° Southeast  Level FlightAware Approximate
Sun 05:08:00 AM -17.1550 -53.1954 136° Southeast  Level FlightAware Approximate
Sun 05:09:00 AM -17.2520 -53.0970 136° Southeast  Level FlightAware Approximate
Sun 05:10:00 AM -17.3490 -52.9985 136° Southeast  Level FlightAware Approximate
Sun 05:11:00 AM -17.4459 -52.8999 136° Southeast  Level FlightAware Approximate
Sun 05:12:00 AM -17.5428 -52.8012 136° Southeast  Level FlightAware Approximate
Sun 05:13:00 AM -17.6396 -52.7023 136° Southeast  Level FlightAware Approximate
Sun 05:14:00 AM -17.7364 -52.6034 136° Southeast  Level FlightAware Approximate
Sun 05:15:00 AM -17.8331 -52.5044 136° Southeast  Level FlightAware Approximate
Sun 05:16:00 AM -17.9298 -52.4053 136° Southeast  Level FlightAware Approximate
Sun 05:17:00 AM -18.0264 -52.3060 136° Southeast  Level FlightAware Approximate
Sun 05:18:00 AM -18.1230 -52.2066 136° Southeast  Level FlightAware Approximate
Sun 05:19:00 AM -18.2195 -52.1072 136° Southeast  Level FlightAware Approximate
Sun 05:20:00 AM -18.3160 -52.0076 136° Southeast  Level FlightAware Approximate
Sun 05:21:00 AM -18.4124 -51.9079 136° Southeast  Level FlightAware Approximate
Sun 05:22:00 AM -18.5088 -51.8081 136° Southeast  Level FlightAware Approximate
Sun 05:23:00 AM -18.6051 -51.7082 135° Southeast  Level FlightAware Approximate
Sun 05:24:00 AM -18.7014 -51.6082 135° Southeast  Level FlightAware Approximate
Sun 05:25:00 AM -18.7976 -51.5081 135° Southeast  Level FlightAware Approximate
Sun 05:26:00 AM -18.8937 -51.4078 135° Southeast  Level FlightAware Approximate
Sun 05:27:00 AM -18.9898 -51.3074 135° Southeast  Level FlightAware Approximate
Sun 05:28:00 AM -19.0859 -51.2070 135° Southeast  Level FlightAware Approximate
Sun 05:29:00 AM -19.1819 -51.1064 135° Southeast  Level FlightAware Approximate
Sun 05:30:00 AM -19.2778 -51.0056 135° Southeast  Level FlightAware Approximate
Sun 05:30:07 AM -19.1790 -50.4750 135° Southeast 514 592 41,000  Level FlightAware ADS-B
Sun 05:30:52 AM -19.2420 -50.4030 133° Southeast 514 592 41,000  Level FlightAware ADS-B
Sun 05:31:00 AM -19.3737 -50.9048 135° Southeast  Level FlightAware Approximate
Sun 05:31:37 AM -19.3210 -50.3190 135° Southeast 514 592 41,000  Level FlightAware ADS-B
Sun 05:32:37 AM -19.4160 -50.2160 134° Southeast 515 593 41,000  Level FlightAware ADS-B
Sun 05:33:32 AM -19.5140 -50.1070 134° Southeast 516 594 41,000  Level FlightAware ADS-B
Sun 05:34:12 AM -19.5760 -50.0390 134° Southeast 517 595 41,000  Level FlightAware ADS-B
Sun 05:34:47 AM -19.6410 -49.9670 134° Southeast 518 596 41,000  Level FlightAware ADS-B
Sun 05:35:22 AM -19.6960 -49.9070 134° Southeast 519 597 41,000  Level FlightAware ADS-B
Sun 05:36:12 AM -19.7800 -49.8160 134° Southeast 521 600 41,000  Level FlightAware ADS-B
Sun 05:36:52 AM -19.8450 -49.7440 134° Southeast 522 601 41,000  Level FlightAware ADS-B
Sun 05:37:22 AM -19.8950 -49.6900 135° Southeast 524 603 41,000  Level FlightAware ADS-B
Sun 05:38:07 AM -19.9710 -49.6070 134° Southeast 525 604 41,000  Level FlightAware ADS-B
Sun 05:38:47 AM -20.0440 -49.5270 134° Southeast 526 605 41,000  Level FlightAware ADS-B
Sun 05:39:22 AM -20.1010 -49.4630 133° Southeast 526 605 41,000  Level FlightAware ADS-B
Sun 05:40:12 AM -20.1860 -49.3700 134° Southeast 526 605 41,000  Level FlightAware ADS-B
Sun 05:40:47 AM -20.2420 -49.3090 134° Southeast 526 605 41,000  Level FlightAware ADS-B
Sun 05:41:37 AM -20.3280 -49.2140 134° Southeast 525 604 41,000  Level FlightAware ADS-B
Sun 05:42:17 AM -20.3940 -49.1410 134° Southeast 524 603 41,000  Level FlightAware ADS-B
Sun 05:42:57 AM -20.4630 -49.0640 134° Southeast 524 603 41,000  Level FlightAware ADS-B
Sun 05:43:37 AM -20.5290 -48.9900 134° Southeast 524 603 41,000  Level FlightAware ADS-B
Sun 05:44:17 AM -20.5990 -48.9130 134° Southeast 525 604 41,000  Level FlightAware ADS-B
Sun 05:45:02 AM -20.6730 -48.8310 134° Southeast 525 604 41,000  Level FlightAware ADS-B
Sun 05:45:42 AM -20.7400 -48.7560 134° Southeast 524 603 41,000  Level FlightAware ADS-B
Sun 05:46:22 AM -20.8070 -48.6810 134° Southeast 523 602 41,000  Level FlightAware ADS-B
Sun 05:47:02 AM -20.8740 -48.6060 134° Southeast 520 598 41,000  Level FlightAware ADS-B
Sun 05:47:57 AM -20.9670 -48.5020 134° Southeast 519 597 41,000  Level FlightAware ADS-B
Sun 05:48:37 AM -21.0280 -48.4320 133° Southeast 517 595 41,000  Level FlightAware ADS-B
Sun 05:49:27 AM -21.1130 -48.3360 134° Southeast 518 596 41,000  Level FlightAware ADS-B
Sun 05:50:07 AM -21.1780 -48.2630 134° Southeast 518 596 41,000  Level FlightAware ADS-B
Sun 05:50:47 AM -21.2400 -48.1940 134° Southeast 517 595 41,000  Level FlightAware ADS-B
Sun 05:51:32 AM -21.3240 -48.0980 133° Southeast 517 595 41,000  Level FlightAware ADS-B
Sun 05:52:07 AM -21.3660 -48.0500 133° Southeast 517 595 41,000  Level FlightAware ADS-B
Sun 05:52:52 AM -21.4560 -47.9480 133° Southeast 516 594 41,000 -600 Level FlightAware ADS-B
Sun 05:53:37 AM -21.5280 -47.8660 133° Southeast 516 594 40,100 -1,200 Descending FlightAware ADS-B
Sun 05:54:32 AM -21.6130 -47.7700 134° Southeast 519 597 39,000 -1,326 Descending FlightAware ADS-B
Sun 05:55:12 AM -21.6790 -47.6950 133° Southeast 518 596 38,000 -1,906 Descending FlightAware ADS-B
Sun 05:55:57 AM -21.7550 -47.6090 134° Southeast 517 595 36,300 -2,259 Descending FlightAware ADS-B
Sun 05:56:37 AM -21.8160 -47.5380 133° Southeast 506 582 34,800 -2,471 Descending FlightAware ADS-B
Sun 05:57:22 AM -21.8920 -47.4510 133° Southeast 501 577 32,800 -2,541 Descending FlightAware ADS-B
Sun 05:58:02 AM -21.9560 -47.3790 134° Southeast 492 566 31,200 -2,250 Descending FlightAware ADS-B
Sun 05:58:42 AM -22.0310 -47.3260 147° Southeast 481 554 29,800 -2,118 Descending FlightAware ADS-B
Sun 05:59:27 AM -22.1240 -47.2870 159° South 466 536 28,200 -2,047 Descending FlightAware ADS-B
Sun 06:00:07 AM -22.2020 -47.2550 159° South 446 513 26,900 -1,976 Descending FlightAware ADS-B
Sun 06:00:52 AM -22.2910 -47.2180 159° South 432 497 25,400 -1,800 Descending FlightAware ADS-B
Sun 06:01:27 AM -22.3430 -47.1970 160° South 434 499 24,500 -1,725 Descending FlightAware ADS-B
Sun 06:02:12 AM -22.4240 -47.1630 159° South 424 488 23,100 -1,933 Descending FlightAware ADS-B
Sun 06:02:57 AM -22.5070 -47.1270 158° South 413 475 21,600 -1,906 Descending FlightAware ADS-B
Sun 06:03:37 AM -22.5780 -47.0970 159° South 406 467 20,400 -1,875 Descending FlightAware ADS-B
Sun 06:04:17 AM -22.6490 -47.0670 159° South 397 457 19,100 -1,835 Descending FlightAware ADS-B
Sun 06:05:02 AM -22.7250 -47.0360 159° South 387 445 17,800 -1,765 Descending FlightAware ADS-B
Sun 06:05:42 AM -22.7900 -47.0080 158° South 353 406 16,600 -1,875 Descending FlightAware ADS-B
Sun 06:06:22 AM -22.8430 -46.9860 159° South 321 369 15,300 -1,275 Descending FlightAware ADS-B
Sun 06:07:02 AM -22.8960 -46.9640 159° South 287 330 14,900 -1,059 Descending FlightAware ADS-B
Sun 06:07:47 AM -22.9510 -46.9410 159° South 282 325 13,800 -1,412 Descending FlightAware ADS-B
Sun 06:08:27 AM -23.0000 -46.9200 158° South 276 318 12,900 -1,200 Descending FlightAware ADS-B
Sun 06:09:12 AM -23.0500 -46.8990 159° South 252 290 12,100 -1,200 Descending FlightAware ADS-B
Sun 06:09:52 AM -23.0940 -46.8810 159° South 249 287 11,200 -1,500 Descending FlightAware ADS-B
Sun 06:10:32 AM -23.1380 -46.8620 158° South 247 284 10,100 -1,360 Descending FlightAware ADS-B
Sun 06:11:07 AM -23.1730 -46.8470 158° South 252 290 9,500 -1,100 Descending FlightAware ADS-B
Sun 06:11:32 AM -23.2040 -46.8340 159° South 252 290 9,000 -1,200 Descending FlightAware ADS-B
Sun 06:12:02 AM -23.2350 -46.8210 159° South 252 290 8,400 -1,100 Descending FlightAware ADS-B
Sun 06:12:32 AM -23.2650 -46.8080 158° South 247 284 7,900 -873 Descending FlightAware ADS-B
Sun 06:12:57 AM -23.2900 -46.7980 160° South 243 280 7,600 -600 Descending FlightAware ADS-B
Sun 06:13:22 AM -23.3150 -46.7870 158° South 216 249 7,400 -480 Descending FlightAware ADS-B
Sun 06:13:47 AM -23.3360 -46.7780 159° South 203 234 7,200 -545 Descending FlightAware ADS-B
Sun 06:14:17 AM -23.3640 -46.7660 159° South 203 234 6,900 -480 Descending FlightAware ADS-B
Sun 06:14:37 AM -23.3760 -46.7590 152° Southeast 203 234 6,800 -700 Descending FlightAware ADS-B
Sun 06:15:17 AM -23.4030 -46.7340 140° Southeast 177 204 6,200 -857 Descending FlightAware ADS-B
Sun 06:15:47 AM -23.4240 -46.7140 139° Southeast 166 191 5,800 -764 Descending FlightAware ADS-B
Sun 06:16:12 AM -23.4360 -46.7030 140° Southeast 164 189 5,500 -720 Descending FlightAware ADS-B
Sun 06:16:37 AM -23.4490 -46.6880 133° Southeast 161 185 5,200 -600 Descending FlightAware ADS-B
Sun 06:17:02 AM -23.4570 -46.6720 119° Southeast 155 178 5,000 -436 Descending FlightAware ADS-B
Sun 06:17:32 AM -23.4660 -46.6510 115° Southeast 149 171 4,800 -462 Descending FlightAware ADS-B
Sun 06:18:07 AM -23.4740 -46.6300 113° Southeast 138 159 4,500 -257 Descending FlightAware ADS-B
Sun 06:18:42 AM -23.4710 -46.6050 83° East 138 159 4,500 -480 Level FlightAware ADS-B
Sun 06:19:22 AM -23.4630 -46.5790 71° East 135 155 3,900 -771 Descending FlightAware ADS-B
Sun 06:19:52 AM -23.4590 -46.5610 76° East 135 155 3,600 -700 Descending FlightAware ADS-B
Sun 06:20:22 AM -23.4530 -46.5380 74° East 135 155 3,200 -720 Descending FlightAware ADS-B
Sun 06:20:42 AM -23.4500 -46.5290 70° East 136 157 3,000 -933 Descending FlightAware ADS-B
Sun 06:21:07 AM -23.4420 -46.4980 74° East 146 168 2,500 -646 Descending FlightAware ADS-B
Sun 06:21:47 AM -23.4360 -46.4730 75° East 146 168 2,300 -300 Descending FlightAware ADS-B

Login

Don't have an account? Register now (free) for customized features, flight alerts, and more!